KAC107 OKKK-VABB
Flight info
| Callsign | KAC107 |
|---|---|
| Flight time | 3h 34m |
| Altitude | 33000 |
| Route | SESRU5F SESRU M677 OBNET DCT TONVO/N0466F350 P307 VAXIM L301 KARKU M638 EXOLU POKON2A |
| Aircraft | A320/M-SDE3FGHIRWY/LB1 |
Departure
| Time | 2026-05-08 19:26 |
|---|---|
| Airport | Kuwait International Airport (OKKK) |
Arrival
| Time | 2026-05-08 23:01 |
|---|---|
| Airport | Chhatrapati Shivaji Maharaj International Airport (VABB) |
| Time | Latitude | Longitude | Altitude | Speed | Heading |
|---|---|---|---|---|---|
| 2026-05-08 18:57 | 29.25051 | 47.96032 | 168 ft | 0 kts | 67° |
| 2026-05-08 19:14 | 29.25043 | 47.96009 | 167 ft | 4 kts | 67° |
| 2026-05-08 19:15 | 29.25034 | 47.95986 | 167 ft | 2 kts | 67° |
| 2026-05-08 19:15 | 29.25027 | 47.95959 | 166 ft | 4 kts | 95° |
| 2026-05-08 19:15 | 29.25032 | 47.95933 | 166 ft | 4 kts | 133° |
| 2026-05-08 19:15 | 29.25052 | 47.95919 | 166 ft | 2 kts | 154° |
| 2026-05-08 19:16 | 29.25074 | 47.95907 | 166 ft | 4 kts | 155° |
| 2026-05-08 19:16 | 29.25084 | 47.95901 | 166 ft | 0 kts | 155° |
| 2026-05-08 19:18 | 29.25081 | 47.95903 | 166 ft | 3 kts | 155° |
| 2026-05-08 19:19 | 29.25017 | 47.95934 | 166 ft | 11 kts | 165° |
| 2026-05-08 19:19 | 29.24938 | 47.95933 | 165 ft | 15 kts | 170° |
| 2026-05-08 19:19 | 29.24817 | 47.95995 | 165 ft | 20 kts | 156° |
| 2026-05-08 19:19 | 29.24695 | 47.96060 | 165 ft | 19 kts | 155° |
| 2026-05-08 19:20 | 29.24584 | 47.96118 | 165 ft | 16 kts | 154° |
| 2026-05-08 19:20 | 29.24551 | 47.96136 | 165 ft | 15 kts | 154° |
| 2026-05-08 19:20 | 29.24408 | 47.96213 | 165 ft | 14 kts | 155° |
| 2026-05-08 19:20 | 29.24289 | 47.96277 | 165 ft | 20 kts | 155° |
| 2026-05-08 19:21 | 29.24175 | 47.96336 | 165 ft | 17 kts | 156° |
| 2026-05-08 19:21 | 29.24047 | 47.96404 | 165 ft | 24 kts | 155° |
| 2026-05-08 19:21 | 29.23871 | 47.96498 | 166 ft | 32 kts | 155° |
| 2026-05-08 19:21 | 29.23666 | 47.96609 | 168 ft | 32 kts | 155° |
| 2026-05-08 19:22 | 29.23473 | 47.96707 | 175 ft | 30 kts | 155° |
| 2026-05-08 19:22 | 29.23291 | 47.96806 | 178 ft | 29 kts | 155° |
| 2026-05-08 19:22 | 29.23103 | 47.96907 | 173 ft | 31 kts | 156° |
| 2026-05-08 19:22 | 29.22902 | 47.97013 | 169 ft | 32 kts | 155° |
| 2026-05-08 19:23 | 29.22697 | 47.97122 | 169 ft | 33 kts | 155° |
| 2026-05-08 19:23 | 29.22490 | 47.97229 | 169 ft | 33 kts | 154° |
| 2026-05-08 19:23 | 29.22283 | 47.97340 | 169 ft | 33 kts | 155° |
| 2026-05-08 19:23 | 29.22075 | 47.97450 | 168 ft | 33 kts | 156° |
| 2026-05-08 19:24 | 29.21865 | 47.97562 | 168 ft | 33 kts | 155° |
| 2026-05-08 19:24 | 29.21660 | 47.97672 | 169 ft | 33 kts | 154° |
| 2026-05-08 19:24 | 29.21456 | 47.97780 | 171 ft | 31 kts | 156° |
| 2026-05-08 19:24 | 29.21283 | 47.97857 | 171 ft | 22 kts | 196° |
| 2026-05-08 19:25 | 29.21258 | 47.97719 | 174 ft | 19 kts | 302° |
| 2026-05-08 19:25 | 29.21320 | 47.97611 | 182 ft | 14 kts | 303° |
| 2026-05-08 19:25 | 29.21396 | 47.97559 | 181 ft | 18 kts | 336° |
| 2026-05-08 19:25 | 29.21733 | 47.97383 | 181 ft | 87 kts | 335° |
| 2026-05-08 19:26 | 29.22459 | 47.96996 | 182 ft | 141 kts | 335° |
| 2026-05-08 19:26 | 29.23472 | 47.96458 | 309 ft | 171 kts | 336° |
| 2026-05-08 19:26 | 29.24498 | 47.95913 | 1097 ft | 160 kts | 337° |
| 2026-05-08 19:26 | 29.25507 | 47.95378 | 1514 ft | 168 kts | 337° |
| 2026-05-08 19:27 | 29.26641 | 47.94779 | 1684 ft | 190 kts | 337° |
| 2026-05-08 19:27 | 29.27907 | 47.94109 | 1805 ft | 213 kts | 334° |
| 2026-05-08 19:27 | 29.29322 | 47.93352 | 1977 ft | 236 kts | 333° |
| 2026-05-08 19:27 | 29.30884 | 47.92512 | 2196 ft | 260 kts | 332° |
| 2026-05-08 19:28 | 29.32599 | 47.91714 | 2766 ft | 269 kts | 346° |
| 2026-05-08 19:28 | 29.34444 | 47.91671 | 3699 ft | 267 kts | 9° |
| 2026-05-08 19:28 | 29.36154 | 47.92517 | 4414 ft | 274 kts | 34° |
| 2026-05-08 19:28 | 29.37416 | 47.94186 | 5022 ft | 284 kts | 56° |
| 2026-05-08 19:29 | 29.38453 | 47.96108 | 5637 ft | 289 kts | 56° |
| 2026-05-08 19:29 | 29.39515 | 47.98085 | 6269 ft | 293 kts | 56° |
| 2026-05-08 19:29 | 29.40592 | 48.00089 | 6917 ft | 296 kts | 56° |
| 2026-05-08 19:29 | 29.41687 | 48.02117 | 7513 ft | 300 kts | 56° |
| 2026-05-08 19:30 | 29.42712 | 48.04222 | 8098 ft | 307 kts | 66° |
| 2026-05-08 19:30 | 29.43232 | 48.06612 | 8684 ft | 312 kts | 84° |
| 2026-05-08 19:30 | 29.43112 | 48.09111 | 9248 ft | 317 kts | 103° |
| 2026-05-08 19:30 | 29.42410 | 48.11507 | 9836 ft | 318 kts | 112° |
| 2026-05-08 19:31 | 29.41590 | 48.13892 | 10224 ft | 330 kts | 112° |
| 2026-05-08 19:31 | 29.40722 | 48.16427 | 10354 ft | 350 kts | 112° |
| 2026-05-08 19:31 | 29.39813 | 48.19092 | 10485 ft | 368 kts | 112° |
| 2026-05-08 19:31 | 29.38861 | 48.21892 | 10611 ft | 385 kts | 112° |
| 2026-05-08 19:32 | 29.38211 | 48.23806 | 10768 ft | 393 kts | 112° |
| 2026-05-08 19:32 | 29.36886 | 48.27705 | 11410 ft | 398 kts | 112° |
| 2026-05-08 19:32 | 29.35879 | 48.30670 | 12000 ft | 399 kts | 112° |
| 2026-05-08 19:32 | 29.34867 | 48.33644 | 12620 ft | 400 kts | 112° |
| 2026-05-08 19:33 | 29.33850 | 48.36632 | 13170 ft | 402 kts | 113° |
| 2026-05-08 19:33 | 29.32838 | 48.39601 | 13672 ft | 406 kts | 113° |
| 2026-05-08 19:33 | 29.31805 | 48.42623 | 14172 ft | 409 kts | 113° |
| 2026-05-08 19:33 | 29.31103 | 48.44678 | 14499 ft | 411 kts | 113° |
| 2026-05-08 19:34 | 29.30055 | 48.47738 | 14980 ft | 414 kts | 113° |
| 2026-05-08 19:34 | 29.28996 | 48.50820 | 15443 ft | 417 kts | 113° |
| 2026-05-08 19:34 | 29.27926 | 48.53926 | 15895 ft | 420 kts | 113° |
| 2026-05-08 19:34 | 29.26851 | 48.57048 | 16342 ft | 423 kts | 113° |
| 2026-05-08 19:35 | 29.25765 | 48.60200 | 16786 ft | 426 kts | 114° |
| 2026-05-08 19:35 | 29.24675 | 48.63367 | 17220 ft | 429 kts | 114° |
| 2026-05-08 19:35 | 29.23574 | 48.66559 | 17652 ft | 432 kts | 114° |
| 2026-05-08 19:35 | 29.22482 | 48.69722 | 18064 ft | 434 kts | 114° |
| 2026-05-08 19:36 | 29.21368 | 48.72946 | 18477 ft | 437 kts | 114° |
| 2026-05-08 19:36 | 29.20249 | 48.76197 | 18869 ft | 439 kts | 114° |
| 2026-05-08 19:36 | 29.19123 | 48.79461 | 19263 ft | 442 kts | 114° |
| 2026-05-08 19:36 | 29.17987 | 48.82745 | 19633 ft | 445 kts | 115° |
| 2026-05-08 19:37 | 29.16846 | 48.86041 | 20000 ft | 447 kts | 115° |
| 2026-05-08 19:37 | 29.15482 | 48.89223 | 20352 ft | 445 kts | 125° |
| 2026-05-08 19:37 | 29.13721 | 48.92117 | 20700 ft | 443 kts | 134° |
| 2026-05-08 19:37 | 29.11614 | 48.94670 | 21048 ft | 440 kts | 142° |
| 2026-05-08 19:38 | 29.09291 | 48.96949 | 21390 ft | 440 kts | 144° |
| 2026-05-08 19:38 | 29.06956 | 48.99220 | 21721 ft | 442 kts | 144° |
| 2026-05-08 19:38 | 29.04637 | 49.01481 | 22042 ft | 443 kts | 144° |
| 2026-05-08 19:38 | 29.02284 | 49.03777 | 22356 ft | 445 kts | 144° |
| 2026-05-08 19:39 | 28.99931 | 49.06074 | 22674 ft | 446 kts | 144° |
| 2026-05-08 19:39 | 28.97564 | 49.08385 | 22951 ft | 448 kts | 145° |
| 2026-05-08 19:39 | 28.95184 | 49.10704 | 23244 ft | 449 kts | 145° |
| 2026-05-08 19:39 | 28.92802 | 49.13016 | 23524 ft | 450 kts | 145° |
| 2026-05-08 19:40 | 28.90408 | 49.15337 | 23815 ft | 452 kts | 145° |
| 2026-05-08 19:40 | 28.88008 | 49.17664 | 24079 ft | 454 kts | 145° |
| 2026-05-08 19:40 | 28.85615 | 49.20019 | 24313 ft | 456 kts | 144° |
| 2026-05-08 19:40 | 28.83233 | 49.22433 | 24567 ft | 458 kts | 144° |
| 2026-05-08 19:41 | 28.80865 | 49.24884 | 24809 ft | 460 kts | 143° |
| 2026-05-08 19:41 | 28.78498 | 49.27347 | 25027 ft | 462 kts | 143° |
| 2026-05-08 19:41 | 28.76121 | 49.29816 | 25256 ft | 463 kts | 144° |
| 2026-05-08 19:41 | 28.73729 | 49.32288 | 25465 ft | 464 kts | 144° |
| 2026-05-08 19:42 | 28.71360 | 49.34722 | 25668 ft | 466 kts | 144° |
| 2026-05-08 19:42 | 28.68944 | 49.37196 | 25879 ft | 467 kts | 144° |
| 2026-05-08 19:42 | 28.66524 | 49.39667 | 26094 ft | 468 kts | 144° |
| 2026-05-08 19:42 | 28.64095 | 49.42146 | 26306 ft | 470 kts | 144° |
| 2026-05-08 19:43 | 28.61693 | 49.44715 | 26516 ft | 476 kts | 139° |
| 2026-05-08 19:43 | 28.59612 | 49.47686 | 26727 ft | 485 kts | 130° |
| 2026-05-08 19:43 | 28.57841 | 49.50986 | 26983 ft | 488 kts | 127° |
| 2026-05-08 19:43 | 28.56099 | 49.54289 | 27279 ft | 487 kts | 128° |
| 2026-05-08 19:44 | 28.54346 | 49.57594 | 27567 ft | 486 kts | 128° |
| 2026-05-08 19:44 | 28.52594 | 49.60886 | 27870 ft | 485 kts | 128° |
| 2026-05-08 19:44 | 28.50847 | 49.64155 | 28157 ft | 484 kts | 128° |
| 2026-05-08 19:44 | 28.49100 | 49.67419 | 28458 ft | 483 kts | 128° |
| 2026-05-08 19:45 | 28.47376 | 49.70635 | 28741 ft | 482 kts | 129° |
| 2026-05-08 19:45 | 28.45635 | 49.73881 | 29013 ft | 481 kts | 129° |
| 2026-05-08 19:45 | 28.43892 | 49.77120 | 29305 ft | 478 kts | 130° |
| 2026-05-08 19:45 | 28.41925 | 49.80117 | 29563 ft | 468 kts | 139° |
| 2026-05-08 19:46 | 28.39640 | 49.82679 | 29875 ft | 456 kts | 148° |
| 2026-05-08 19:46 | 28.37110 | 49.84792 | 30160 ft | 448 kts | 154° |
| 2026-05-08 19:46 | 28.31935 | 49.88705 | 30702 ft | 446 kts | 154° |
| 2026-05-08 19:47 | 28.29353 | 49.90665 | 30975 ft | 445 kts | 154° |
| 2026-05-08 19:47 | 28.26782 | 49.92618 | 31212 ft | 445 kts | 154° |
| 2026-05-08 19:47 | 28.24206 | 49.94573 | 31459 ft | 444 kts | 154° |
| 2026-05-08 19:47 | 28.21640 | 49.96521 | 31714 ft | 444 kts | 154° |
| 2026-05-08 19:48 | 28.19071 | 49.98473 | 31964 ft | 443 kts | 154° |
| 2026-05-08 19:48 | 28.16511 | 50.00416 | 32206 ft | 442 kts | 154° |
| 2026-05-08 19:48 | 28.13984 | 50.02330 | 32434 ft | 442 kts | 154° |
| 2026-05-08 19:48 | 28.11427 | 50.04267 | 32660 ft | 441 kts | 154° |
| 2026-05-08 19:49 | 28.08873 | 50.06196 | 32872 ft | 441 kts | 154° |
| 2026-05-08 19:49 | 28.06318 | 50.08124 | 33090 ft | 441 kts | 154° |
| 2026-05-08 19:49 | 28.03763 | 50.10055 | 33312 ft | 440 kts | 154° |
| 2026-05-08 19:49 | 28.01218 | 50.11981 | 33534 ft | 440 kts | 154° |
| 2026-05-08 19:50 | 27.98675 | 50.13906 | 33739 ft | 439 kts | 154° |
| 2026-05-08 19:50 | 27.96130 | 50.15832 | 33890 ft | 440 kts | 154° |
| 2026-05-08 19:50 | 27.91026 | 50.19680 | 33925 ft | 440 kts | 155° |
| 2026-05-08 19:51 | 27.85950 | 50.23494 | 33925 ft | 441 kts | 154° |
| 2026-05-08 19:51 | 27.80840 | 50.27336 | 33925 ft | 441 kts | 154° |
| 2026-05-08 19:52 | 27.75725 | 50.31193 | 33924 ft | 441 kts | 154° |
| 2026-05-08 19:52 | 27.70615 | 50.35029 | 33923 ft | 441 kts | 154° |
| 2026-05-08 19:53 | 27.65497 | 50.38864 | 33919 ft | 442 kts | 154° |
| 2026-05-08 19:53 | 27.60375 | 50.42709 | 33916 ft | 442 kts | 154° |
| 2026-05-08 19:54 | 27.55304 | 50.46592 | 33910 ft | 443 kts | 153° |
| 2026-05-08 19:54 | 27.50222 | 50.50518 | 33904 ft | 443 kts | 153° |
| 2026-05-08 19:55 | 27.45117 | 50.54430 | 33907 ft | 443 kts | 153° |
| 2026-05-08 19:55 | 27.40003 | 50.58336 | 33898 ft | 444 kts | 153° |
| 2026-05-08 19:56 | 27.34911 | 50.62233 | 33896 ft | 445 kts | 153° |
| 2026-05-08 19:56 | 27.29783 | 50.66140 | 33901 ft | 445 kts | 153° |
| 2026-05-08 19:57 | 27.24639 | 50.70052 | 33904 ft | 446 kts | 153° |
| 2026-05-08 19:57 | 27.19504 | 50.73964 | 33907 ft | 447 kts | 153° |
| 2026-05-08 19:58 | 27.14420 | 50.78040 | 33905 ft | 454 kts | 145° |
| 2026-05-08 19:58 | 27.09907 | 50.83091 | 33904 ft | 459 kts | 142° |
| 2026-05-08 19:59 | 27.05447 | 50.88148 | 33903 ft | 459 kts | 142° |
| 2026-05-08 19:59 | 27.00961 | 50.93270 | 33904 ft | 462 kts | 138° |
| 2026-05-08 20:00 | 26.97288 | 50.99302 | 33908 ft | 473 kts | 128° |
| 2026-05-08 20:00 | 26.93830 | 51.05581 | 33906 ft | 472 kts | 129° |
| 2026-05-08 20:01 | 26.90349 | 51.11847 | 33909 ft | 473 kts | 129° |
| 2026-05-08 20:01 | 26.87097 | 51.18236 | 33908 ft | 482 kts | 118° |
| 2026-05-08 20:02 | 26.84890 | 51.25386 | 33910 ft | 486 kts | 114° |
| 2026-05-08 20:02 | 26.82745 | 51.32576 | 33913 ft | 487 kts | 115° |
| 2026-05-08 20:03 | 26.80588 | 51.39774 | 33917 ft | 487 kts | 114° |
| 2026-05-08 20:03 | 26.78431 | 51.46947 | 33924 ft | 486 kts | 115° |
| 2026-05-08 20:04 | 26.76261 | 51.54135 | 33929 ft | 486 kts | 114° |
| 2026-05-08 20:04 | 26.74109 | 51.61264 | 33931 ft | 486 kts | 114° |
| 2026-05-08 20:05 | 26.71945 | 51.68444 | 33936 ft | 486 kts | 114° |
| 2026-05-08 20:05 | 26.69793 | 51.75639 | 33943 ft | 486 kts | 114° |
| 2026-05-08 20:06 | 26.67651 | 51.82808 | 33948 ft | 486 kts | 114° |
| 2026-05-08 20:06 | 26.65500 | 51.89972 | 33954 ft | 486 kts | 114° |
| 2026-05-08 20:07 | 26.63260 | 51.97101 | 33957 ft | 485 kts | 116° |
| 2026-05-08 20:07 | 26.60926 | 52.04125 | 33955 ft | 485 kts | 116° |
| 2026-05-08 20:08 | 26.58575 | 52.11204 | 33955 ft | 485 kts | 115° |
| 2026-05-08 20:08 | 26.56261 | 52.18290 | 33895 ft | 485 kts | 115° |
| 2026-05-08 20:09 | 26.53951 | 52.25364 | 33891 ft | 485 kts | 115° |
| 2026-05-08 20:09 | 26.51648 | 52.32402 | 33895 ft | 485 kts | 115° |
| 2026-05-08 20:10 | 26.49307 | 52.39527 | 33896 ft | 485 kts | 115° |
| 2026-05-08 20:10 | 26.46986 | 52.46564 | 33894 ft | 486 kts | 115° |
| 2026-05-08 20:11 | 26.44644 | 52.53647 | 33896 ft | 486 kts | 115° |
| 2026-05-08 20:11 | 26.42302 | 52.60734 | 33899 ft | 486 kts | 115° |
| 2026-05-08 20:12 | 26.39972 | 52.67779 | 33900 ft | 487 kts | 115° |
| 2026-05-08 20:12 | 26.37622 | 52.74860 | 33901 ft | 487 kts | 115° |
| 2026-05-08 20:13 | 26.35262 | 52.81961 | 33901 ft | 488 kts | 115° |
| 2026-05-08 20:13 | 26.32900 | 52.89052 | 33903 ft | 488 kts | 115° |
| 2026-05-08 20:14 | 26.30531 | 52.96142 | 33900 ft | 488 kts | 115° |
| 2026-05-08 20:14 | 26.28158 | 53.03241 | 33897 ft | 489 kts | 115° |
| 2026-05-08 20:15 | 26.25776 | 53.10337 | 33896 ft | 489 kts | 115° |
| 2026-05-08 20:15 | 26.23407 | 53.17389 | 33897 ft | 489 kts | 115° |
| 2026-05-08 20:16 | 26.21007 | 53.24507 | 33895 ft | 490 kts | 115° |
| 2026-05-08 20:16 | 26.18607 | 53.31615 | 33897 ft | 490 kts | 115° |
| 2026-05-08 20:17 | 26.16039 | 53.38637 | 33894 ft | 488 kts | 118° |
| 2026-05-08 20:17 | 26.13200 | 53.45444 | 33895 ft | 488 kts | 120° |
| 2026-05-08 20:18 | 26.10298 | 53.52278 | 33899 ft | 488 kts | 119° |
| 2026-05-08 20:18 | 26.07937 | 53.57996 | 33899 ft | 489 kts | 118° |
| 2026-05-08 20:19 | 26.05152 | 53.64898 | 33896 ft | 489 kts | 117° |
| 2026-05-08 20:19 | 26.02363 | 53.71809 | 33901 ft | 489 kts | 118° |
| 2026-05-08 20:20 | 25.99630 | 53.78763 | 33907 ft | 491 kts | 115° |
| 2026-05-08 20:20 | 25.97323 | 53.85911 | 33911 ft | 493 kts | 111° |
| 2026-05-08 20:21 | 25.95164 | 53.93104 | 33906 ft | 493 kts | 112° |
| 2026-05-08 20:21 | 25.92918 | 54.00293 | 33903 ft | 492 kts | 113° |
| 2026-05-08 20:22 | 25.90587 | 54.07435 | 33902 ft | 492 kts | 113° |
| 2026-05-08 20:22 | 25.88237 | 54.14577 | 33898 ft | 492 kts | 113° |
| 2026-05-08 20:23 | 25.85908 | 54.21728 | 33897 ft | 492 kts | 113° |
| 2026-05-08 20:23 | 25.83611 | 54.28840 | 33886 ft | 492 kts | 113° |
| 2026-05-08 20:24 | 25.81283 | 54.35993 | 33888 ft | 492 kts | 113° |
| 2026-05-08 20:24 | 25.78950 | 54.43136 | 33871 ft | 491 kts | 113° |
| 2026-05-08 20:25 | 25.76617 | 54.50253 | 33831 ft | 490 kts | 113° |
| 2026-05-08 20:25 | 25.74289 | 54.57350 | 33832 ft | 490 kts | 113° |
| 2026-05-08 20:26 | 25.71968 | 54.64416 | 33833 ft | 490 kts | 113° |
| 2026-05-08 20:26 | 25.69635 | 54.71506 | 33840 ft | 489 kts | 113° |
| 2026-05-08 20:27 | 25.67299 | 54.78598 | 33830 ft | 489 kts | 113° |
| 2026-05-08 20:27 | 25.64961 | 54.85674 | 33828 ft | 489 kts | 113° |
| 2026-05-08 20:28 | 25.62636 | 54.92703 | 33827 ft | 488 kts | 113° |
| 2026-05-08 20:28 | 25.60300 | 54.99772 | 33829 ft | 488 kts | 113° |
| 2026-05-08 20:29 | 25.57954 | 55.06837 | 33827 ft | 487 kts | 113° |
| 2026-05-08 20:29 | 25.55622 | 55.13823 | 33823 ft | 486 kts | 113° |
| 2026-05-08 20:30 | 25.53281 | 55.20850 | 33824 ft | 486 kts | 113° |
| 2026-05-08 20:30 | 25.50944 | 55.27876 | 33824 ft | 486 kts | 113° |
| 2026-05-08 20:31 | 25.48593 | 55.34894 | 33823 ft | 486 kts | 113° |
| 2026-05-08 20:31 | 25.46239 | 55.41912 | 33825 ft | 486 kts | 113° |
| 2026-05-08 20:32 | 25.43885 | 55.48937 | 33819 ft | 485 kts | 113° |
| 2026-05-08 20:32 | 25.41540 | 55.55895 | 33815 ft | 485 kts | 113° |
| 2026-05-08 20:33 | 25.39177 | 55.62887 | 33807 ft | 486 kts | 113° |
| 2026-05-08 20:33 | 25.36812 | 55.69903 | 33808 ft | 485 kts | 113° |
| 2026-05-08 20:34 | 25.34450 | 55.76903 | 33803 ft | 485 kts | 113° |
| 2026-05-08 20:35 | 25.30894 | 55.87388 | 33803 ft | 485 kts | 113° |
| 2026-05-08 20:35 | 25.28525 | 55.94371 | 33804 ft | 485 kts | 113° |
| 2026-05-08 20:36 | 25.26151 | 56.01358 | 33799 ft | 486 kts | 113° |
| 2026-05-08 20:36 | 25.23787 | 56.08303 | 33795 ft | 485 kts | 113° |
| 2026-05-08 20:37 | 25.21407 | 56.15278 | 33786 ft | 485 kts | 113° |
| 2026-05-08 20:37 | 25.19019 | 56.22253 | 33779 ft | 485 kts | 113° |
| 2026-05-08 20:38 | 25.16631 | 56.29220 | 33776 ft | 485 kts | 113° |
| 2026-05-08 20:38 | 25.14260 | 56.36135 | 33764 ft | 484 kts | 113° |
| 2026-05-08 20:39 | 25.11868 | 56.43092 | 33773 ft | 484 kts | 113° |
| 2026-05-08 20:39 | 25.09474 | 56.50031 | 33607 ft | 482 kts | 113° |
| 2026-05-08 20:39 | 25.08278 | 56.53493 | 32997 ft | 481 kts | 113° |
| 2026-05-08 20:40 | 25.07061 | 56.56936 | 32761 ft | 482 kts | 114° |
| 2026-05-08 20:40 | 25.04539 | 56.63745 | 32755 ft | 483 kts | 115° |
| 2026-05-08 20:41 | 25.01956 | 56.70587 | 32757 ft | 483 kts | 115° |
| 2026-05-08 20:41 | 24.99376 | 56.77486 | 32757 ft | 484 kts | 115° |
| 2026-05-08 20:42 | 24.96849 | 56.84312 | 32758 ft | 483 kts | 114° |
| 2026-05-08 20:42 | 24.94305 | 56.91189 | 32758 ft | 483 kts | 115° |
| 2026-05-08 20:43 | 24.91743 | 56.98044 | 32760 ft | 484 kts | 115° |
| 2026-05-08 20:43 | 24.89191 | 57.04858 | 32757 ft | 483 kts | 115° |
| 2026-05-08 20:44 | 24.86632 | 57.11707 | 32755 ft | 483 kts | 114° |
| 2026-05-08 20:44 | 24.84071 | 57.18548 | 32757 ft | 483 kts | 115° |
| 2026-05-08 20:45 | 24.81504 | 57.25385 | 32759 ft | 483 kts | 115° |
| 2026-05-08 20:45 | 24.78931 | 57.32216 | 32760 ft | 483 kts | 115° |
| 2026-05-08 20:46 | 24.76376 | 57.38997 | 32759 ft | 482 kts | 115° |
| 2026-05-08 20:46 | 24.73795 | 57.45838 | 32759 ft | 482 kts | 115° |
| 2026-05-08 20:47 | 24.71225 | 57.52647 | 32762 ft | 483 kts | 114° |
| 2026-05-08 20:47 | 24.68645 | 57.59453 | 32763 ft | 482 kts | 115° |
| 2026-05-08 20:48 | 24.66074 | 57.66223 | 32766 ft | 482 kts | 114° |
| 2026-05-08 20:48 | 24.63499 | 57.73023 | 32762 ft | 481 kts | 114° |
| 2026-05-08 20:49 | 24.60920 | 57.79817 | 32757 ft | 481 kts | 114° |
| 2026-05-08 20:49 | 24.58338 | 57.86606 | 32754 ft | 480 kts | 114° |
| 2026-05-08 20:50 | 24.55768 | 57.93333 | 32750 ft | 480 kts | 115° |
| 2026-05-08 20:50 | 24.53179 | 58.00092 | 32747 ft | 479 kts | 114° |
| 2026-05-08 20:51 | 24.50597 | 58.06838 | 32744 ft | 479 kts | 114° |
| 2026-05-08 20:51 | 24.48013 | 58.13584 | 32745 ft | 479 kts | 114° |
| 2026-05-08 20:52 | 24.45435 | 58.20289 | 32748 ft | 479 kts | 114° |
| 2026-05-08 20:52 | 24.42839 | 58.27041 | 32754 ft | 480 kts | 114° |
| 2026-05-08 20:53 | 24.40246 | 58.33791 | 32753 ft | 480 kts | 114° |
| 2026-05-08 20:53 | 24.37646 | 58.40547 | 32755 ft | 480 kts | 114° |
| 2026-05-08 20:54 | 24.35041 | 58.47301 | 32759 ft | 480 kts | 114° |
| 2026-05-08 20:54 | 24.32439 | 58.54010 | 32766 ft | 481 kts | 115° |
| 2026-05-08 20:55 | 24.29816 | 58.60765 | 32768 ft | 481 kts | 114° |
| 2026-05-08 20:55 | 24.27209 | 58.67487 | 32768 ft | 481 kts | 115° |
| 2026-05-08 20:56 | 24.24581 | 58.74234 | 32762 ft | 481 kts | 115° |
| 2026-05-08 20:56 | 24.21962 | 58.80978 | 32761 ft | 480 kts | 114° |
| 2026-05-08 20:57 | 24.19343 | 58.87717 | 32760 ft | 480 kts | 115° |
| 2026-05-08 20:57 | 24.16711 | 58.94458 | 32759 ft | 480 kts | 115° |
| 2026-05-08 20:58 | 24.14080 | 59.01184 | 32761 ft | 481 kts | 115° |
| 2026-05-08 20:58 | 24.11441 | 59.07912 | 32768 ft | 481 kts | 115° |
| 2026-05-08 20:59 | 24.08812 | 59.14608 | 32768 ft | 481 kts | 115° |
| 2026-05-08 20:59 | 24.06177 | 59.21334 | 32768 ft | 481 kts | 115° |
| 2026-05-08 21:00 | 24.03530 | 59.28056 | 32771 ft | 481 kts | 115° |
| 2026-05-08 21:00 | 24.00888 | 59.34771 | 32776 ft | 481 kts | 114° |
| 2026-05-08 21:01 | 23.98352 | 59.41536 | 32780 ft | 480 kts | 113° |
| 2026-05-08 21:01 | 23.95885 | 59.48328 | 32780 ft | 480 kts | 113° |
| 2026-05-08 21:02 | 23.93398 | 59.55101 | 32779 ft | 479 kts | 113° |
| 2026-05-08 21:02 | 23.90890 | 59.61841 | 32770 ft | 479 kts | 114° |
| 2026-05-08 21:03 | 23.88390 | 59.68539 | 32767 ft | 478 kts | 113° |
| 2026-05-08 21:03 | 23.85873 | 59.75285 | 32762 ft | 478 kts | 114° |
| 2026-05-08 21:04 | 23.83353 | 59.82016 | 32762 ft | 479 kts | 114° |
| 2026-05-08 21:04 | 23.80834 | 59.88753 | 32766 ft | 479 kts | 114° |
| 2026-05-08 21:05 | 23.78312 | 59.95497 | 32773 ft | 479 kts | 114° |
| 2026-05-08 21:05 | 23.75789 | 60.02227 | 32771 ft | 479 kts | 114° |
| 2026-05-08 21:06 | 23.73276 | 60.08909 | 32771 ft | 479 kts | 114° |
| 2026-05-08 21:06 | 23.70749 | 60.15637 | 32775 ft | 479 kts | 114° |
| 2026-05-08 21:07 | 23.68224 | 60.22355 | 32771 ft | 478 kts | 113° |
| 2026-05-08 21:07 | 23.66119 | 60.27946 | 32769 ft | 478 kts | 114° |
| 2026-05-08 21:08 | 23.63579 | 60.34657 | 32770 ft | 478 kts | 114° |
| 2026-05-08 21:08 | 23.61038 | 60.41378 | 32769 ft | 478 kts | 114° |
| 2026-05-08 21:09 | 23.58505 | 60.48081 | 32766 ft | 478 kts | 114° |
| 2026-05-08 21:09 | 23.55972 | 60.54750 | 32762 ft | 479 kts | 114° |
| 2026-05-08 21:10 | 23.53420 | 60.61457 | 32765 ft | 479 kts | 114° |
| 2026-05-08 21:10 | 23.50870 | 60.68177 | 32773 ft | 480 kts | 114° |
| 2026-05-08 21:11 | 23.48320 | 60.74900 | 32781 ft | 480 kts | 114° |
| 2026-05-08 21:11 | 23.45758 | 60.81618 | 32787 ft | 480 kts | 114° |
| 2026-05-08 21:12 | 23.43186 | 60.88326 | 32794 ft | 479 kts | 114° |
| 2026-05-08 21:12 | 23.40630 | 60.94981 | 32794 ft | 479 kts | 114° |
| 2026-05-08 21:13 | 23.38062 | 61.01678 | 32793 ft | 479 kts | 114° |
| 2026-05-08 21:13 | 23.35495 | 61.08372 | 32788 ft | 479 kts | 114° |
| 2026-05-08 21:14 | 23.32922 | 61.15070 | 32782 ft | 479 kts | 113° |
| 2026-05-08 21:14 | 23.31329 | 61.22054 | 32781 ft | 481 kts | 96° |
| 2026-05-08 21:15 | 23.30709 | 61.29304 | 32783 ft | 481 kts | 96° |
| 2026-05-08 21:15 | 23.30067 | 61.36542 | 32786 ft | 481 kts | 96° |
| 2026-05-08 21:16 | 23.29424 | 61.43781 | 32786 ft | 481 kts | 96° |
| 2026-05-08 21:16 | 23.28775 | 61.51028 | 32792 ft | 481 kts | 96° |
| 2026-05-08 21:17 | 23.28125 | 61.58233 | 32794 ft | 481 kts | 97° |
| 2026-05-08 21:17 | 23.27465 | 61.65476 | 32792 ft | 480 kts | 97° |
| 2026-05-08 21:18 | 23.26803 | 61.72719 | 32790 ft | 480 kts | 97° |
| 2026-05-08 21:18 | 23.26142 | 61.79950 | 32789 ft | 480 kts | 97° |
| 2026-05-08 21:19 | 23.25487 | 61.87186 | 32790 ft | 480 kts | 97° |
| 2026-05-08 21:19 | 23.24819 | 61.94379 | 32793 ft | 480 kts | 97° |
| 2026-05-08 21:20 | 23.24134 | 62.01612 | 32795 ft | 480 kts | 97° |
| 2026-05-08 21:20 | 23.23463 | 62.08838 | 32798 ft | 480 kts | 96° |
| 2026-05-08 21:21 | 23.22805 | 62.16013 | 32800 ft | 479 kts | 96° |
| 2026-05-08 21:21 | 23.22124 | 62.23231 | 32797 ft | 479 kts | 97° |
| 2026-05-08 21:22 | 23.21437 | 62.30438 | 32797 ft | 479 kts | 97° |
| 2026-05-08 21:22 | 23.20756 | 62.37642 | 32797 ft | 479 kts | 97° |
| 2026-05-08 21:23 | 23.20067 | 62.44851 | 32797 ft | 479 kts | 97° |
| 2026-05-08 21:23 | 23.19375 | 62.52062 | 32796 ft | 479 kts | 97° |
| 2026-05-08 21:24 | 23.18686 | 62.59260 | 32801 ft | 479 kts | 97° |
| 2026-05-08 21:24 | 23.17988 | 62.66467 | 32803 ft | 479 kts | 97° |
| 2026-05-08 21:25 | 23.17279 | 62.73679 | 32805 ft | 479 kts | 97° |
| 2026-05-08 21:25 | 23.16577 | 62.80832 | 32809 ft | 479 kts | 97° |
| 2026-05-08 21:26 | 23.15870 | 62.88023 | 32821 ft | 479 kts | 96° |
| 2026-05-08 21:26 | 23.15167 | 62.95227 | 32828 ft | 479 kts | 96° |
| 2026-05-08 21:27 | 23.14456 | 63.02431 | 32831 ft | 478 kts | 97° |
| 2026-05-08 21:27 | 23.13743 | 63.09585 | 32833 ft | 478 kts | 96° |
| 2026-05-08 21:28 | 23.13025 | 63.16771 | 32834 ft | 479 kts | 97° |
| 2026-05-08 21:28 | 23.12294 | 63.23965 | 32829 ft | 479 kts | 97° |
| 2026-05-08 21:29 | 23.11561 | 63.31151 | 32829 ft | 479 kts | 97° |
| 2026-05-08 21:29 | 23.10830 | 63.38349 | 32836 ft | 479 kts | 97° |
| 2026-05-08 21:30 | 23.10095 | 63.45542 | 32834 ft | 479 kts | 97° |
| 2026-05-08 21:30 | 23.09354 | 63.52725 | 32836 ft | 479 kts | 97° |
| 2026-05-08 21:31 | 23.08616 | 63.59876 | 32836 ft | 479 kts | 97° |
| 2026-05-08 21:31 | 23.07878 | 63.67071 | 32842 ft | 479 kts | 97° |
| 2026-05-08 21:32 | 23.07130 | 63.74253 | 32839 ft | 479 kts | 97° |
| 2026-05-08 21:32 | 23.06376 | 63.81444 | 32837 ft | 478 kts | 97° |
| 2026-05-08 21:33 | 23.05101 | 63.88508 | 32844 ft | 477 kts | 110° |
| 2026-05-08 21:33 | 23.02624 | 63.95186 | 32836 ft | 476 kts | 113° |
| 2026-05-08 21:34 | 23.00127 | 64.01813 | 32832 ft | 477 kts | 112° |
| 2026-05-08 21:34 | 22.97617 | 64.08476 | 32831 ft | 477 kts | 112° |
| 2026-05-08 21:35 | 22.95101 | 64.15139 | 32832 ft | 477 kts | 112° |
| 2026-05-08 21:35 | 22.92574 | 64.21804 | 32844 ft | 477 kts | 112° |
| 2026-05-08 21:36 | 22.90072 | 64.28429 | 32844 ft | 477 kts | 112° |
| 2026-05-08 21:36 | 22.87546 | 64.35107 | 32848 ft | 478 kts | 112° |
| 2026-05-08 21:37 | 22.85016 | 64.41767 | 32850 ft | 477 kts | 112° |
| 2026-05-08 21:37 | 22.82487 | 64.48421 | 32846 ft | 478 kts | 112° |
| 2026-05-08 21:38 | 22.79969 | 64.55047 | 32850 ft | 478 kts | 112° |
| 2026-05-08 21:38 | 22.77420 | 64.61715 | 32850 ft | 478 kts | 113° |
| 2026-05-08 21:39 | 22.74862 | 64.68380 | 32849 ft | 478 kts | 112° |
| 2026-05-08 21:39 | 22.72332 | 64.75002 | 32854 ft | 478 kts | 112° |
| 2026-05-08 21:40 | 22.69779 | 64.81665 | 32849 ft | 478 kts | 112° |
| 2026-05-08 21:40 | 22.67228 | 64.88315 | 32851 ft | 478 kts | 112° |
| 2026-05-08 21:41 | 22.63407 | 64.98252 | 32849 ft | 478 kts | 112° |
| 2026-05-08 21:41 | 22.60839 | 65.04898 | 32848 ft | 478 kts | 112° |
| 2026-05-08 21:42 | 22.58267 | 65.11544 | 32844 ft | 478 kts | 112° |
| 2026-05-08 21:42 | 22.55703 | 65.18180 | 32847 ft | 478 kts | 112° |
| 2026-05-08 21:43 | 22.53141 | 65.24815 | 32841 ft | 478 kts | 112° |
| 2026-05-08 21:43 | 22.50578 | 65.31453 | 32843 ft | 478 kts | 112° |
| 2026-05-08 21:44 | 22.48006 | 65.38085 | 32843 ft | 478 kts | 112° |
| 2026-05-08 21:44 | 22.45447 | 65.44667 | 32835 ft | 478 kts | 112° |
| 2026-05-08 21:45 | 22.42867 | 65.51292 | 32828 ft | 478 kts | 112° |
| 2026-05-08 21:45 | 22.40292 | 65.57910 | 32824 ft | 477 kts | 112° |
| 2026-05-08 21:46 | 22.37727 | 65.64485 | 32824 ft | 477 kts | 112° |
| 2026-05-08 21:46 | 22.35141 | 65.71099 | 32829 ft | 477 kts | 112° |
| 2026-05-08 21:47 | 22.32553 | 65.77709 | 32827 ft | 477 kts | 112° |
| 2026-05-08 21:47 | 22.29973 | 65.84315 | 32839 ft | 477 kts | 112° |
| 2026-05-08 21:48 | 22.27381 | 65.90914 | 32831 ft | 476 kts | 112° |
| 2026-05-08 21:48 | 22.24808 | 65.97453 | 32828 ft | 476 kts | 112° |
| 2026-05-08 21:49 | 22.22214 | 66.04040 | 32822 ft | 476 kts | 112° |
| 2026-05-08 21:49 | 22.19625 | 66.10615 | 32820 ft | 476 kts | 112° |
| 2026-05-08 21:50 | 22.17026 | 66.17196 | 32821 ft | 477 kts | 112° |
| 2026-05-08 21:50 | 22.14419 | 66.23782 | 32826 ft | 477 kts | 112° |
| 2026-05-08 21:51 | 22.11830 | 66.30337 | 32832 ft | 478 kts | 112° |
| 2026-05-08 21:51 | 22.09223 | 66.36927 | 32831 ft | 478 kts | 112° |
| 2026-05-08 21:52 | 22.06605 | 66.43524 | 32828 ft | 478 kts | 112° |
| 2026-05-08 21:52 | 22.03979 | 66.50128 | 32833 ft | 478 kts | 112° |
| 2026-05-08 21:53 | 22.01374 | 66.56680 | 32828 ft | 479 kts | 112° |
| 2026-05-08 21:53 | 21.98747 | 66.63288 | 32828 ft | 478 kts | 112° |
| 2026-05-08 21:54 | 21.96120 | 66.69874 | 32830 ft | 478 kts | 112° |
| 2026-05-08 21:54 | 21.93496 | 66.76454 | 32824 ft | 478 kts | 112° |
| 2026-05-08 21:55 | 21.90867 | 66.83034 | 32821 ft | 478 kts | 112° |
| 2026-05-08 21:56 | 21.86918 | 66.92855 | 32821 ft | 479 kts | 112° |
| 2026-05-08 21:56 | 21.84272 | 66.99433 | 32818 ft | 479 kts | 112° |
| 2026-05-08 21:57 | 21.82071 | 67.04911 | 32816 ft | 479 kts | 112° |
| 2026-05-08 21:57 | 21.79431 | 67.11495 | 32814 ft | 479 kts | 112° |
| 2026-05-08 21:58 | 21.76782 | 67.18081 | 32821 ft | 480 kts | 112° |
| 2026-05-08 21:58 | 21.74114 | 67.24674 | 32827 ft | 480 kts | 112° |
| 2026-05-08 21:59 | 21.71447 | 67.31276 | 32833 ft | 481 kts | 112° |
| 2026-05-08 21:59 | 21.68790 | 67.37839 | 32831 ft | 481 kts | 112° |
| 2026-05-08 22:00 | 21.66113 | 67.44452 | 32832 ft | 482 kts | 112° |
| 2026-05-08 22:00 | 21.63430 | 67.51084 | 32831 ft | 483 kts | 112° |
| 2026-05-08 22:01 | 21.60739 | 67.57699 | 32834 ft | 483 kts | 112° |
| 2026-05-08 22:01 | 21.58058 | 67.64279 | 32837 ft | 483 kts | 112° |
| 2026-05-08 22:02 | 21.55372 | 67.70898 | 32835 ft | 484 kts | 112° |
| 2026-05-08 22:02 | 21.52671 | 67.77522 | 32846 ft | 484 kts | 112° |
| 2026-05-08 22:03 | 21.49966 | 67.84151 | 32851 ft | 484 kts | 112° |
| 2026-05-08 22:03 | 21.47255 | 67.90781 | 32849 ft | 484 kts | 112° |
| 2026-05-08 22:04 | 21.44541 | 67.97402 | 32849 ft | 484 kts | 112° |
| 2026-05-08 22:04 | 21.41843 | 68.03984 | 32849 ft | 485 kts | 112° |
| 2026-05-08 22:05 | 21.39120 | 68.10613 | 32851 ft | 485 kts | 112° |
| 2026-05-08 22:05 | 21.36392 | 68.17240 | 32848 ft | 485 kts | 112° |
| 2026-05-08 22:06 | 21.33669 | 68.23880 | 32854 ft | 486 kts | 112° |
| 2026-05-08 22:06 | 21.30943 | 68.30508 | 32854 ft | 485 kts | 112° |
| 2026-05-08 22:07 | 21.28210 | 68.37129 | 32853 ft | 485 kts | 112° |
| 2026-05-08 22:07 | 21.25472 | 68.43745 | 32849 ft | 485 kts | 112° |
| 2026-05-08 22:08 | 21.22738 | 68.50370 | 32849 ft | 485 kts | 112° |
| 2026-05-08 22:08 | 21.20001 | 68.56981 | 32849 ft | 485 kts | 112° |
| 2026-05-08 22:09 | 21.17277 | 68.63535 | 32847 ft | 485 kts | 112° |
| 2026-05-08 22:09 | 21.14519 | 68.70185 | 32846 ft | 485 kts | 112° |
| 2026-05-08 22:10 | 21.11783 | 68.76761 | 32846 ft | 486 kts | 112° |
| 2026-05-08 22:10 | 21.09026 | 68.83378 | 32850 ft | 486 kts | 112° |
| 2026-05-08 22:11 | 21.06274 | 68.89987 | 32853 ft | 486 kts | 112° |
| 2026-05-08 22:11 | 21.03518 | 68.96586 | 32855 ft | 486 kts | 112° |
| 2026-05-08 22:12 | 21.00771 | 69.03145 | 32854 ft | 486 kts | 112° |
| 2026-05-08 22:12 | 20.97999 | 69.09745 | 32854 ft | 487 kts | 112° |
| 2026-05-08 22:13 | 20.95784 | 69.16586 | 32857 ft | 486 kts | 106° |
| 2026-05-08 22:13 | 20.93722 | 69.23469 | 32858 ft | 486 kts | 106° |
| 2026-05-08 22:14 | 20.91654 | 69.30306 | 32856 ft | 486 kts | 106° |
| 2026-05-08 22:14 | 20.89563 | 69.37204 | 32858 ft | 487 kts | 106° |
| 2026-05-08 22:15 | 20.87478 | 69.44104 | 32864 ft | 487 kts | 106° |
| 2026-05-08 22:15 | 20.85387 | 69.51007 | 32871 ft | 488 kts | 106° |
| 2026-05-08 22:16 | 20.83287 | 69.57913 | 32875 ft | 488 kts | 106° |
| 2026-05-08 22:16 | 20.81187 | 69.64822 | 32876 ft | 488 kts | 106° |
| 2026-05-08 22:17 | 20.79091 | 69.71687 | 32880 ft | 488 kts | 106° |
| 2026-05-08 22:17 | 20.76982 | 69.78602 | 32879 ft | 488 kts | 106° |
| 2026-05-08 22:18 | 20.74883 | 69.85461 | 32877 ft | 488 kts | 107° |
| 2026-05-08 22:18 | 20.72768 | 69.92361 | 32876 ft | 488 kts | 107° |
| 2026-05-08 22:19 | 20.70657 | 69.99249 | 32876 ft | 488 kts | 107° |
| 2026-05-08 22:19 | 20.68541 | 70.06153 | 32869 ft | 489 kts | 107° |
| 2026-05-08 22:20 | 20.66419 | 70.13064 | 32865 ft | 490 kts | 107° |
| 2026-05-08 22:20 | 20.64296 | 70.19949 | 32869 ft | 490 kts | 107° |
| 2026-05-08 22:21 | 20.62163 | 70.26860 | 32868 ft | 490 kts | 107° |
| 2026-05-08 22:21 | 20.60025 | 70.33774 | 32868 ft | 490 kts | 107° |
| 2026-05-08 22:22 | 20.57881 | 70.40703 | 32867 ft | 491 kts | 107° |
| 2026-05-08 22:22 | 20.55734 | 70.47624 | 32865 ft | 490 kts | 107° |
| 2026-05-08 22:23 | 20.53592 | 70.54513 | 32862 ft | 491 kts | 107° |
| 2026-05-08 22:23 | 20.51435 | 70.61430 | 32859 ft | 491 kts | 107° |
| 2026-05-08 22:24 | 20.49281 | 70.68347 | 32851 ft | 491 kts | 107° |
| 2026-05-08 22:24 | 20.47143 | 70.75213 | 32840 ft | 491 kts | 107° |
| 2026-05-08 22:25 | 20.44982 | 70.82129 | 32840 ft | 492 kts | 107° |
| 2026-05-08 22:25 | 20.42811 | 70.89059 | 32833 ft | 492 kts | 107° |
| 2026-05-08 22:26 | 20.40641 | 70.96000 | 32824 ft | 493 kts | 107° |
| 2026-05-08 22:26 | 20.38456 | 71.02936 | 32812 ft | 493 kts | 107° |
| 2026-05-08 22:27 | 20.36288 | 71.09824 | 32811 ft | 493 kts | 107° |
| 2026-05-08 22:27 | 20.34100 | 71.16785 | 32808 ft | 494 kts | 107° |
| 2026-05-08 22:28 | 20.31908 | 71.23737 | 32810 ft | 494 kts | 107° |
| 2026-05-08 22:28 | 20.29723 | 71.30647 | 32812 ft | 495 kts | 107° |
| 2026-05-08 22:29 | 20.27530 | 71.37601 | 32814 ft | 495 kts | 107° |
| 2026-05-08 22:29 | 20.25325 | 71.44558 | 32820 ft | 496 kts | 107° |
| 2026-05-08 22:30 | 20.23112 | 71.51518 | 32824 ft | 496 kts | 107° |
| 2026-05-08 22:30 | 20.20082 | 71.58118 | 32823 ft | 498 kts | 124° |
| 2026-05-08 22:31 | 20.15549 | 71.63689 | 32820 ft | 498 kts | 133° |
| 2026-05-08 22:31 | 20.10865 | 71.69066 | 32818 ft | 498 kts | 132° |
| 2026-05-08 22:32 | 20.06160 | 71.74484 | 32819 ft | 498 kts | 132° |
| 2026-05-08 22:32 | 20.01452 | 71.79905 | 32835 ft | 498 kts | 132° |
| 2026-05-08 22:33 | 19.96753 | 71.85294 | 32841 ft | 496 kts | 133° |
| 2026-05-08 22:33 | 19.92057 | 71.90683 | 32841 ft | 495 kts | 133° |
| 2026-05-08 22:34 | 19.87419 | 71.96005 | 32821 ft | 486 kts | 133° |
| 2026-05-08 22:34 | 19.85156 | 71.98601 | 32707 ft | 472 kts | 132° |
| 2026-05-08 22:34 | 19.82950 | 72.01126 | 32477 ft | 461 kts | 132° |
| 2026-05-08 22:34 | 19.80777 | 72.03610 | 32067 ft | 456 kts | 132° |
| 2026-05-08 22:35 | 19.78628 | 72.06062 | 31598 ft | 452 kts | 132° |
| 2026-05-08 22:35 | 19.76424 | 72.08438 | 31116 ft | 450 kts | 137° |
| 2026-05-08 22:35 | 19.74095 | 72.10644 | 30612 ft | 447 kts | 137° |
| 2026-05-08 22:35 | 19.71787 | 72.12838 | 30120 ft | 444 kts | 137° |
| 2026-05-08 22:36 | 19.69495 | 72.15017 | 29333 ft | 439 kts | 136° |
| 2026-05-08 22:36 | 19.67235 | 72.17165 | 28517 ft | 435 kts | 137° |
| 2026-05-08 22:36 | 19.64993 | 72.19297 | 27726 ft | 430 kts | 137° |
| 2026-05-08 22:36 | 19.62810 | 72.21375 | 26966 ft | 425 kts | 137° |
| 2026-05-08 22:37 | 19.60595 | 72.23480 | 26187 ft | 420 kts | 137° |
| 2026-05-08 22:37 | 19.58432 | 72.25534 | 25407 ft | 415 kts | 137° |
| 2026-05-08 22:37 | 19.56296 | 72.27562 | 24631 ft | 410 kts | 138° |
| 2026-05-08 22:37 | 19.54206 | 72.29543 | 23879 ft | 406 kts | 138° |
| 2026-05-08 22:38 | 19.52112 | 72.31527 | 23126 ft | 401 kts | 138° |
| 2026-05-08 22:38 | 19.50045 | 72.33486 | 22417 ft | 395 kts | 138° |
| 2026-05-08 22:38 | 19.48003 | 72.35419 | 21725 ft | 390 kts | 138° |
| 2026-05-08 22:38 | 19.45996 | 72.37317 | 21058 ft | 385 kts | 137° |
| 2026-05-08 22:39 | 19.44010 | 72.39195 | 20398 ft | 379 kts | 137° |
| 2026-05-08 22:39 | 19.42059 | 72.41042 | 19731 ft | 373 kts | 137° |
| 2026-05-08 22:39 | 19.40137 | 72.42863 | 19082 ft | 367 kts | 137° |
| 2026-05-08 22:39 | 19.38245 | 72.44652 | 18451 ft | 362 kts | 137° |
| 2026-05-08 22:40 | 19.36380 | 72.46413 | 17827 ft | 356 kts | 137° |
| 2026-05-08 22:40 | 19.34540 | 72.48145 | 17202 ft | 351 kts | 137° |
| 2026-05-08 22:40 | 19.32730 | 72.49850 | 16595 ft | 346 kts | 137° |
| 2026-05-08 22:40 | 19.30950 | 72.51531 | 16001 ft | 340 kts | 137° |
| 2026-05-08 22:41 | 19.29195 | 72.53191 | 15414 ft | 335 kts | 137° |
| 2026-05-08 22:41 | 19.27469 | 72.54824 | 14825 ft | 330 kts | 136° |
| 2026-05-08 22:41 | 19.25789 | 72.56414 | 14253 ft | 325 kts | 137° |
| 2026-05-08 22:41 | 19.24128 | 72.57978 | 14000 ft | 310 kts | 137° |
| 2026-05-08 22:42 | 19.22682 | 72.59585 | 13687 ft | 296 kts | 122° |
| 2026-05-08 22:42 | 19.21809 | 72.61512 | 13237 ft | 288 kts | 103° |
| 2026-05-08 22:42 | 19.21564 | 72.63582 | 12725 ft | 282 kts | 89° |
| 2026-05-08 22:42 | 19.21570 | 72.65655 | 12189 ft | 281 kts | 89° |
| 2026-05-08 22:43 | 19.21568 | 72.67024 | 11863 ft | 278 kts | 90° |
| 2026-05-08 22:43 | 19.21559 | 72.69053 | 11396 ft | 274 kts | 89° |
| 2026-05-08 22:43 | 19.21542 | 72.71702 | 11048 ft | 271 kts | 89° |
| 2026-05-08 22:43 | 19.21526 | 72.73690 | 10826 ft | 268 kts | 89° |
| 2026-05-08 22:44 | 19.21507 | 72.75669 | 10804 ft | 269 kts | 90° |
| 2026-05-08 22:44 | 19.21495 | 72.77006 | 10803 ft | 270 kts | 90° |
| 2026-05-08 22:44 | 19.21480 | 72.78984 | 10812 ft | 269 kts | 89° |
| 2026-05-08 22:44 | 19.21472 | 72.80951 | 10816 ft | 271 kts | 89° |
| 2026-05-08 22:45 | 19.21468 | 72.82937 | 10814 ft | 271 kts | 89° |
| 2026-05-08 22:45 | 19.21461 | 72.84925 | 10813 ft | 270 kts | 89° |
| 2026-05-08 22:45 | 19.21446 | 72.86905 | 10812 ft | 269 kts | 89° |
| 2026-05-08 22:45 | 19.21428 | 72.88890 | 10812 ft | 270 kts | 89° |
| 2026-05-08 22:46 | 19.21409 | 72.90877 | 10811 ft | 270 kts | 90° |
| 2026-05-08 22:46 | 19.21390 | 72.92872 | 10811 ft | 271 kts | 90° |
| 2026-05-08 22:46 | 19.21368 | 72.94876 | 10805 ft | 271 kts | 89° |
| 2026-05-08 22:46 | 19.21356 | 72.96854 | 10807 ft | 269 kts | 89° |
| 2026-05-08 22:47 | 19.21345 | 72.98823 | 10809 ft | 269 kts | 89° |
| 2026-05-08 22:47 | 19.21338 | 73.00808 | 10817 ft | 270 kts | 89° |
| 2026-05-08 22:47 | 19.21329 | 73.02797 | 10816 ft | 270 kts | 89° |
| 2026-05-08 22:47 | 19.21317 | 73.04788 | 10812 ft | 271 kts | 89° |
| 2026-05-08 22:48 | 19.21298 | 73.06773 | 10812 ft | 270 kts | 89° |
| 2026-05-08 22:48 | 19.21278 | 73.08741 | 10811 ft | 270 kts | 89° |
| 2026-05-08 22:48 | 19.21259 | 73.10726 | 10815 ft | 269 kts | 89° |
| 2026-05-08 22:48 | 19.21238 | 73.12700 | 10809 ft | 267 kts | 89° |
| 2026-05-08 22:49 | 19.21217 | 73.14678 | 10802 ft | 270 kts | 89° |
| 2026-05-08 22:49 | 19.21240 | 73.18662 | 10314 ft | 268 kts | 88° |
| 2026-05-08 22:49 | 19.21264 | 73.20644 | 10069 ft | 269 kts | 88° |
| 2026-05-08 22:50 | 19.21292 | 73.22617 | 9874 ft | 268 kts | 88° |
| 2026-05-08 22:50 | 19.21317 | 73.24567 | 9752 ft | 268 kts | 88° |
| 2026-05-08 22:50 | 19.21339 | 73.26543 | 9586 ft | 270 kts | 88° |
| 2026-05-08 22:50 | 19.21361 | 73.28560 | 9049 ft | 276 kts | 88° |
| 2026-05-08 22:51 | 19.21384 | 73.30611 | 8519 ft | 280 kts | 88° |
| 2026-05-08 22:51 | 19.21318 | 73.32688 | 7995 ft | 286 kts | 99° |
| 2026-05-08 22:51 | 19.20583 | 73.34653 | 7463 ft | 293 kts | 122° |
| 2026-05-08 22:51 | 19.19111 | 73.36155 | 6941 ft | 299 kts | 148° |
| 2026-05-08 22:52 | 19.17132 | 73.36860 | 6404 ft | 305 kts | 174° |
| 2026-05-08 22:52 | 19.15031 | 73.36577 | 5879 ft | 308 kts | 201° |
| 2026-05-08 22:52 | 19.13254 | 73.35348 | 5358 ft | 308 kts | 229° |
| 2026-05-08 22:52 | 19.12189 | 73.33449 | 5168 ft | 293 kts | 254° |
| 2026-05-08 22:53 | 19.11844 | 73.31417 | 5043 ft | 278 kts | 265° |
| 2026-05-08 22:53 | 19.11619 | 73.29430 | 4914 ft | 266 kts | 265° |
| 2026-05-08 22:53 | 19.11410 | 73.27533 | 4785 ft | 254 kts | 265° |
| 2026-05-08 22:53 | 19.11208 | 73.25704 | 4662 ft | 246 kts | 265° |
| 2026-05-08 22:54 | 19.11013 | 73.23925 | 4533 ft | 244 kts | 265° |
| 2026-05-08 22:54 | 19.10817 | 73.22142 | 4413 ft | 244 kts | 265° |
| 2026-05-08 22:54 | 19.10622 | 73.20359 | 4285 ft | 242 kts | 265° |
| 2026-05-08 22:54 | 19.10427 | 73.18581 | 4083 ft | 244 kts | 265° |
| 2026-05-08 22:55 | 19.10234 | 73.16814 | 3923 ft | 236 kts | 265° |
| 2026-05-08 22:55 | 19.10047 | 73.15129 | 3874 ft | 225 kts | 265° |
| 2026-05-08 22:55 | 19.09873 | 73.13546 | 3820 ft | 216 kts | 265° |
| 2026-05-08 22:55 | 19.09702 | 73.11978 | 3779 ft | 213 kts | 265° |
| 2026-05-08 22:56 | 19.09533 | 73.10430 | 3727 ft | 212 kts | 265° |
| 2026-05-08 22:56 | 19.09311 | 73.08887 | 3672 ft | 212 kts | 264° |
| 2026-05-08 22:56 | 19.09170 | 73.07335 | 3583 ft | 212 kts | 269° |
| 2026-05-08 22:56 | 19.09122 | 73.05791 | 3377 ft | 209 kts | 271° |
| 2026-05-08 22:57 | 19.09102 | 73.04287 | 3090 ft | 197 kts | 270° |
| 2026-05-08 22:57 | 19.09085 | 73.02878 | 2837 ft | 186 kts | 271° |
| 2026-05-08 22:57 | 19.09068 | 73.01553 | 2601 ft | 174 kts | 271° |
| 2026-05-08 22:57 | 19.09051 | 73.00333 | 2374 ft | 164 kts | 271° |
| 2026-05-08 22:58 | 19.09037 | 72.99144 | 2157 ft | 160 kts | 271° |
| 2026-05-08 22:58 | 19.09022 | 72.97979 | 1959 ft | 157 kts | 270° |
| 2026-05-08 22:58 | 19.09006 | 72.96826 | 1751 ft | 156 kts | 271° |
| 2026-05-08 22:58 | 19.08991 | 72.95683 | 1537 ft | 154 kts | 271° |
| 2026-05-08 22:59 | 19.08976 | 72.94568 | 1358 ft | 154 kts | 270° |
| 2026-05-08 22:59 | 19.08962 | 72.93462 | 1155 ft | 148 kts | 270° |
| 2026-05-08 22:59 | 19.08948 | 72.92383 | 949 ft | 146 kts | 270° |
| 2026-05-08 22:59 | 19.08933 | 72.91311 | 752 ft | 145 kts | 271° |
| 2026-05-08 23:00 | 19.08919 | 72.90245 | 560 ft | 145 kts | 271° |
| 2026-05-08 23:00 | 19.08904 | 72.89191 | 373 ft | 145 kts | 269° |
| 2026-05-08 23:00 | 19.08888 | 72.88131 | 172 ft | 144 kts | 271° |
| 2026-05-08 23:00 | 19.08872 | 72.87083 | 83 ft | 141 kts | 270° |
| 2026-05-08 23:01 | 19.08852 | 72.86105 | 46 ft | 116 kts | 270° |
| 2026-05-08 23:01 | 19.08850 | 72.85530 | 49 ft | 46 kts | 270° |
| 2026-05-08 23:01 | 19.08860 | 72.85279 | 51 ft | 30 kts | 270° |
| 2026-05-08 23:01 | 19.08861 | 72.85151 | 50 ft | 9 kts | 285° |
| 2026-05-08 23:02 | 19.08908 | 72.85124 | 50 ft | 7 kts | 349° |
| 2026-05-08 23:02 | 19.08954 | 72.85122 | 49 ft | 6 kts | 0° |
| 2026-05-08 23:02 | 19.08993 | 72.85124 | 49 ft | 5 kts | 5° |
| 2026-05-08 23:02 | 19.09018 | 72.85139 | 49 ft | 3 kts | 53° |
| 2026-05-08 23:03 | 19.09021 | 72.85178 | 49 ft | 9 kts | 90° |
| 2026-05-08 23:03 | 19.09022 | 72.85238 | 49 ft | 8 kts | 88° |
| 2026-05-08 23:03 | 19.09024 | 72.85288 | 49 ft | 6 kts | 88° |
| 2026-05-08 23:03 | 19.09025 | 72.85329 | 49 ft | 5 kts | 88° |
| 2026-05-08 23:04 | 19.09025 | 72.85390 | 46 ft | 14 kts | 91° |
| 2026-05-08 23:04 | 19.09027 | 72.85506 | 49 ft | 18 kts | 88° |
| 2026-05-08 23:04 | 19.09048 | 72.85599 | 46 ft | 10 kts | 33° |
| 2026-05-08 23:04 | 19.09081 | 72.85647 | 46 ft | 8 kts | 92° |
| 2026-05-08 23:05 | 19.09080 | 72.85719 | 49 ft | 12 kts | 85° |
| 2026-05-08 23:05 | 19.09125 | 72.85777 | 48 ft | 10 kts | 31° |
| 2026-05-08 23:05 | 19.09167 | 72.85772 | 49 ft | 1 kts | 341° |
| 2026-05-08 23:05 | 19.09175 | 72.85768 | 49 ft | 1 kts | 338° |
| 2026-05-08 23:06 | 19.09180 | 72.85766 | 49 ft | 1 kts | 337° |
| 2026-05-08 23:06 | 19.09187 | 72.85763 | 49 ft | 0 kts | 336° |